createdAt,value
2023-09-06T00:01:30.548Z,-48.14078
2023-09-06T00:06:31.488Z,-47.74714
2023-09-06T00:11:32.440Z,-47.32911
2023-09-06T00:16:33.410Z,-47.37848
2023-09-06T00:21:34.390Z,-47.07872
2023-09-06T00:26:35.299Z,-46.81792
2023-09-06T00:31:36.299Z,-47.14297
2023-09-06T00:36:37.577Z,-47.02009
2023-09-06T00:41:38.666Z,-47.21689
2023-09-06T00:46:39.707Z,-47.03203
2023-09-06T00:51:41.057Z,-47.38508
2023-09-06T00:56:42.139Z,-47.39419
2023-09-06T01:01:43.511Z,-47.08676
2023-09-06T01:06:44.643Z,-46.73523
2023-09-06T01:11:45.925Z,-47.31523
2023-09-06T01:16:47.137Z,-47.29895
2023-09-06T01:21:48.810Z,-47.06386
2023-09-06T01:26:50.004Z,-47.78525
2023-09-06T01:31:51.372Z,-47.96471
2023-09-06T01:36:52.750Z,-47.70022
2023-09-06T01:41:53.758Z,-47.94144
2023-09-06T01:46:54.733Z,-47.776
2023-09-06T01:51:55.993Z,-47.41273
2023-09-06T01:56:57.336Z,-46.92558
2023-09-06T02:01:58.749Z,-46.99587
2023-09-06T02:07:00.237Z,-46.95935
2023-09-06T02:12:01.451Z,-45.85223
2023-09-06T02:17:03.111Z,-46.27703
2023-09-06T02:22:04.304Z,-45.67173
2023-09-06T02:27:05.425Z,-45.2533
2023-09-06T02:32:07.306Z,-46.03615
2023-09-06T02:37:08.399Z,-47.07556
2023-09-06T02:42:09.392Z,-47.24266
2023-09-06T02:47:10.316Z,-46.7805
2023-09-06T02:52:11.209Z,-46.77302
2023-09-06T02:57:12.221Z,-47.19501
2023-09-06T03:02:13.158Z,-47.69067
2023-09-06T03:07:14.088Z,-48.14625
2023-09-06T03:12:15.025Z,-48.69219
2023-09-06T03:17:15.968Z,-49.10043
2023-09-06T03:22:16.987Z,-49.15568
2023-09-06T03:27:18.156Z,-49.50679
2023-09-06T03:32:19.619Z,-49.75381
2023-09-06T03:37:20.921Z,-49.78542
2023-09-06T03:42:22.176Z,-49.76869
2023-09-06T03:47:23.279Z,-50.16893
2023-09-06T03:52:24.290Z,-50.5969
2023-09-06T03:57:25.233Z,-50.93959
2023-09-06T04:02:26.321Z,-51.05473
2023-09-06T04:07:27.430Z,-51.35166
2023-09-06T04:12:28.452Z,-51.79977
2023-09-06T04:17:29.463Z,-52.14475
2023-09-06T04:22:30.525Z,-52.52396
2023-09-06T04:27:31.420Z,-52.61986
2023-09-06T04:32:32.421Z,-52.72197
2023-09-06T04:37:33.341Z,-53.28978
2023-09-06T04:42:34.304Z,-53.29707
2023-09-06T04:47:36.857Z,-53.21127
2023-09-06T04:52:39.950Z,-53.44867
2023-09-06T04:57:41.174Z,-54.25933
2023-09-06T05:02:42.192Z,-54.47323
2023-09-06T05:07:43.170Z,-54.46961
2023-09-06T05:12:44.144Z,-54.46859
2023-09-06T05:17:45.160Z,-54.72798
2023-09-06T05:22:46.105Z,-54.45423
2023-09-06T05:27:47.055Z,-54.42617
2023-09-06T05:32:48.167Z,-54.17958
2023-09-06T05:37:49.180Z,-54.87138
2023-09-06T05:42:50.130Z,-55.05283
2023-09-06T05:47:51.242Z,-55.68492
2023-09-06T05:52:52.243Z,-56.19363
2023-09-06T05:57:53.232Z,-56.62483
2023-09-06T06:02:54.460Z,-56.92784
2023-09-06T06:07:55.408Z,-56.61938
2023-09-06T06:12:56.377Z,-56.7236
2023-09-06T06:17:57.277Z,-56.3627
2023-09-06T06:22:58.250Z,-56.36663
2023-09-06T06:27:59.344Z,-56.36217
2023-09-06T06:33:00.393Z,-56.15076
2023-09-06T06:38:01.404Z,-56.26243
2023-09-06T06:43:02.359Z,-56.19569
2023-09-06T06:48:03.280Z,-56.62603
2023-09-06T06:53:04.309Z,-56.45421
2023-09-06T06:58:06.269Z,-56.30628
2023-09-06T07:03:07.362Z,-56.3714
2023-09-06T07:08:08.437Z,-56.28813
2023-09-06T07:13:09.370Z,-56.82988
2023-09-06T07:18:10.392Z,-56.98852
2023-09-06T07:23:11.418Z,-56.86423
2023-09-06T07:28:12.339Z,-57.39162
2023-09-06T07:33:13.348Z,-57.59126
2023-09-06T07:38:14.380Z,-57.26312
2023-09-06T07:43:15.462Z,-57.21972
2023-09-06T07:48:16.496Z,-57.22571
2023-09-06T07:53:17.627Z,-57.2466
2023-09-06T07:58:18.842Z,-57.56105
2023-09-06T08:03:20.126Z,-57.67206
2023-09-06T08:08:21.354Z,-57.63097
2023-09-06T08:13:22.576Z,-57.70297
2023-09-06T08:18:23.878Z,-57.35443
2023-09-06T08:23:24.918Z,-57.80723
2023-09-06T08:28:25.907Z,-57.50497
2023-09-06T08:33:26.899Z,-57.85606
2023-09-06T08:38:27.873Z,-57.62782
2023-09-06T08:43:28.808Z,-57.76684
2023-09-06T08:48:30.165Z,-57.74541
2023-09-06T08:53:31.771Z,-58.00826
2023-09-06T08:58:32.848Z,-57.66947
2023-09-06T09:03:34.274Z,-57.7008
2023-09-06T09:08:35.644Z,-57.92398
2023-09-06T09:13:36.640Z,-57.53684
2023-09-06T09:18:37.669Z,-57.85627
2023-09-06T09:23:38.778Z,-58.19391
2023-09-06T09:28:39.713Z,-58.64439
2023-09-06T09:33:40.878Z,-58.4318
2023-09-06T09:38:41.901Z,-58.45338
2023-09-06T09:43:42.847Z,-58.74808
2023-09-06T09:48:43.822Z,-58.25424
2023-09-06T09:53:44.874Z,-57.94273
2023-09-06T09:58:45.847Z,-57.36979
2023-09-06T10:03:46.865Z,-57.28007
2023-09-06T10:08:47.874Z,-57.57423
2023-09-06T10:13:48.805Z,-57.29091
2023-09-06T10:18:49.858Z,-57.58278
2023-09-06T10:23:50.965Z,-57.45296
2023-09-06T10:28:51.928Z,-57.62216
2023-09-06T10:33:52.864Z,-57.30506
2023-09-06T10:38:54.128Z,-57.26241
2023-09-06T10:43:55.240Z,-56.94078
2023-09-06T10:48:56.353Z,-57.20886
2023-09-06T10:53:57.462Z,-56.30053
2023-09-06T10:58:58.489Z,-56.29859
2023-09-06T11:03:59.596Z,-56.06523
2023-09-06T11:09:00.572Z,-55.77358
2023-09-06T11:14:01.788Z,-55.9714
2023-09-06T11:19:02.852Z,-55.5651
2023-09-06T11:24:03.880Z,-54.92802
2023-09-06T11:29:05.015Z,-54.85704
2023-09-06T11:34:06.260Z,-54.93408
2023-09-06T11:39:07.500Z,-54.31651
2023-09-06T11:44:08.459Z,-54.37061
2023-09-06T11:49:09.424Z,-54.0916
2023-09-06T11:54:10.349Z,-53.79896
2023-09-06T11:59:11.333Z,-53.23348
2023-09-06T12:04:12.390Z,-52.94051
2023-09-06T12:09:13.533Z,-52.68241
2023-09-06T12:14:14.772Z,-52.51049
2023-09-06T12:19:15.686Z,-52.65948
2023-09-06T12:24:16.650Z,-52.36884
2023-09-06T12:29:17.676Z,-52.44772
2023-09-06T12:34:18.703Z,-52.13486
2023-09-06T12:39:20.058Z,-51.65641
2023-09-06T12:44:21.328Z,-51.56401
2023-09-06T12:49:22.541Z,-50.95253
2023-09-06T12:54:23.772Z,-50.84231
2023-09-06T12:59:24.719Z,-50.45285
2023-09-06T13:04:25.971Z,-50.3955
2023-09-06T13:09:27.122Z,-50.28283
2023-09-06T13:14:28.080Z,-50.00865
2023-09-06T13:19:29.064Z,-49.54946
2023-09-06T13:24:30.018Z,-49.51408
2023-09-06T13:29:30.929Z,-49.04875
2023-09-06T13:34:31.956Z,-48.80527
2023-09-06T13:39:32.923Z,-48.75842
2023-09-06T13:44:33.861Z,-48.69079
2023-09-06T13:49:34.828Z,-48.3958
2023-09-06T13:54:35.817Z,-47.98803
2023-09-06T13:59:36.765Z,-47.49976
2023-09-06T14:04:37.850Z,-46.84462
2023-09-06T14:09:38.928Z,-46.60964
2023-09-06T14:14:39.849Z,-46.26137
2023-09-06T14:19:40.804Z,-45.96994
2023-09-06T14:24:41.739Z,-45.64097
2023-09-06T14:29:42.663Z,-45.37959
2023-09-06T14:34:43.777Z,-45.28785
2023-09-06T14:39:44.835Z,-45.17586
2023-09-06T14:44:45.891Z,-44.95343
2023-09-06T14:49:46.830Z,-44.52906
2023-09-06T14:54:47.844Z,-45.22756
2023-09-06T14:59:48.962Z,-45.19217
2023-09-06T15:04:49.976Z,-44.75974
2023-09-06T15:09:50.989Z,-44.70996
2023-09-06T15:14:52.133Z,-44.75159
2023-09-06T15:19:53.122Z,-44.57306
2023-09-06T15:24:54.050Z,-44.25831
2023-09-06T15:29:54.963Z,-44.37564
2023-09-06T15:34:55.907Z,-44.42137
2023-09-06T15:39:56.883Z,-44.56311
2023-09-06T15:44:57.920Z,-44.74198
2023-09-06T15:49:58.869Z,-45.12592
2023-09-06T15:54:59.888Z,-44.99896
2023-09-06T16:00:09.385Z,-44.7598
2023-09-06T16:05:17.467Z,-44.88817
2023-09-06T16:10:18.401Z,-45.17369
2023-09-06T16:15:19.642Z,-45.25092
2023-09-06T16:20:20.849Z,-45.28659
2023-09-06T16:25:22.082Z,-45.40456
2023-09-06T16:30:23.425Z,-45.46223
2023-09-06T16:35:24.865Z,-45.26196
2023-09-06T16:40:25.858Z,-45.37193
2023-09-06T16:45:26.778Z,-45.25221
2023-09-06T16:50:27.704Z,-45.64433
2023-09-06T16:55:28.729Z,-45.51189
2023-09-06T17:00:29.741Z,-46.5134
2023-09-06T17:05:30.746Z,-46.57454
2023-09-06T17:10:31.724Z,-46.69539
2023-09-06T17:15:32.737Z,-46.9807
2023-09-06T17:20:33.756Z,-47.27529
2023-09-06T17:25:34.767Z,-47.71769
2023-09-06T17:30:35.742Z,-47.98659
2023-09-06T17:35:36.668Z,-48.4813
2023-09-06T17:40:37.741Z,-48.74435
2023-09-06T17:45:38.869Z,-49.00891
2023-09-06T17:50:39.964Z,-49.418
2023-09-06T17:55:40.894Z,-49.54142
2023-09-06T18:00:41.860Z,-49.61691
2023-09-06T18:05:43.353Z,-50.22955
2023-09-06T18:10:44.594Z,-50.43535
2023-09-06T18:15:45.588Z,-50.54726
2023-09-06T18:20:46.526Z,-50.77089
2023-09-06T18:25:47.550Z,-51.27482
2023-09-06T18:30:48.519Z,-51.38285
2023-09-06T18:35:49.521Z,-51.20863
2023-09-06T18:40:50.470Z,-51.21267
2023-09-06T18:45:51.755Z,-51.34825
2023-09-06T18:50:52.748Z,-51.98985
2023-09-06T18:55:53.801Z,-51.80714
2023-09-06T19:00:54.752Z,-52.33927
2023-09-06T19:05:55.753Z,-52.60794
2023-09-06T19:10:56.764Z,-52.44974
2023-09-06T19:15:57.727Z,-53.03797
2023-09-06T19:20:58.733Z,-53.5107
2023-09-06T19:25:59.659Z,-53.94903
2023-09-06T19:31:00.673Z,-54.42553
2023-09-06T19:36:01.723Z,-54.45708
2023-09-06T19:41:02.674Z,-54.94307
2023-09-06T19:46:03.626Z,-55.42996
2023-09-06T19:51:04.573Z,-55.12819
2023-09-06T19:56:05.484Z,-55.13375
2023-09-06T20:01:06.464Z,-54.91203
2023-09-06T20:06:07.523Z,-55.11927
2023-09-06T20:11:08.487Z,-54.97022
2023-09-06T20:16:09.431Z,-54.53105
2023-09-06T20:21:10.401Z,-54.50843
2023-09-06T20:26:11.344Z,-54.21839
2023-09-06T20:31:12.292Z,-54.20045
2023-09-06T20:36:13.277Z,-54.66057
2023-09-06T20:41:14.194Z,-54.60083
2023-09-06T20:46:15.251Z,-55.29341
2023-09-06T20:51:16.307Z,-55.70615
2023-09-06T20:56:17.328Z,-56.0257
2023-09-06T21:01:18.305Z,-56.24395
2023-09-06T21:06:19.481Z,-56.77486
2023-09-06T21:11:20.794Z,-56.60804
2023-09-06T21:16:22.066Z,-57.07496
2023-09-06T21:21:23.312Z,-56.88
2023-09-06T21:26:24.598Z,-57.26666
2023-09-06T21:31:25.633Z,-57.43068
2023-09-06T21:36:26.746Z,-57.94398
2023-09-06T21:41:27.677Z,-58.42143
2023-09-06T21:46:28.613Z,-58.45503
2023-09-06T21:51:29.547Z,-58.66004
2023-09-06T21:56:30.518Z,-58.94081
2023-09-06T22:01:31.549Z,-58.94796
2023-09-06T22:06:32.584Z,-59.43157
2023-09-06T22:11:33.507Z,-59.58256
2023-09-06T22:16:34.490Z,-59.93505
2023-09-06T22:21:35.502Z,-60.36507
2023-09-06T22:26:36.424Z,-60.75084
2023-09-06T22:31:37.430Z,-60.76995
2023-09-06T22:36:38.486Z,-61.0181
2023-09-06T22:41:39.407Z,-60.95608
2023-09-06T22:46:40.437Z,-61.15249
2023-09-06T22:51:41.558Z,-61.04358
2023-09-06T22:56:42.491Z,-61.55567
2023-09-06T23:01:43.515Z,-61.52777
2023-09-06T23:06:44.505Z,-61.84188
2023-09-06T23:11:45.419Z,-61.4029
2023-09-06T23:16:46.628Z,-61.51754
2023-09-06T23:21:47.620Z,-61.56977
2023-09-06T23:26:48.558Z,-61.84429
2023-09-06T23:31:49.597Z,-61.75605
2023-09-06T23:36:50.748Z,-61.44468
2023-09-06T23:41:51.678Z,-61.7728
2023-09-06T23:46:52.714Z,-62.08085
2023-09-06T23:51:53.785Z,-61.96701
2023-09-06T23:56:54.736Z,-62.26164
